createdAt,value
2018-01-07T00:02:14.031Z,99.20
2018-01-07T00:04:41.478Z,99.10
2018-01-07T00:07:09.033Z,99.10
2018-01-07T00:09:36.508Z,99.10
2018-01-07T00:12:04.722Z,99.40
2018-01-07T00:14:32.169Z,99.40
2018-01-07T00:16:59.630Z,99.70
2018-01-07T00:19:27.069Z,99.70
2018-01-07T00:21:55.293Z,99.70
2018-01-07T00:24:22.749Z,99.70
2018-01-07T00:26:50.206Z,99.80
2018-01-07T00:29:18.439Z,99.50
2018-01-07T00:31:45.888Z,99.50
2018-01-07T00:34:13.351Z,99.40
2018-01-07T00:36:41.557Z,97.10
2018-01-07T00:39:08.975Z,97.10
2018-01-07T00:41:36.437Z,97.30
2018-01-07T00:44:03.897Z,97.20
2018-01-07T00:46:31.346Z,96.90
2018-01-07T00:48:58.800Z,96.80
2018-01-07T00:51:26.262Z,97.30
2018-01-07T00:53:53.676Z,97.20
2018-01-07T00:56:21.150Z,97.10
2018-01-07T00:58:49.365Z,96.20
2018-01-07T01:01:16.775Z,96.40
2018-01-07T01:03:44.233Z,96.70
2018-01-07T01:06:11.680Z,96.50
2018-01-07T01:08:39.081Z,96.70
2018-01-07T01:11:07.434Z,96.90
2018-01-07T01:13:35.616Z,96.90
2018-01-07T01:16:03.039Z,96.90
2018-01-07T01:18:31.227Z,97.00
2018-01-07T01:20:58.648Z,97.00
2018-01-07T01:23:26.075Z,96.80
2018-01-07T01:25:54.263Z,96.90
2018-01-07T01:28:21.687Z,96.90
2018-01-07T01:30:49.116Z,96.80
2018-01-07T01:33:17.312Z,96.80
2018-01-07T01:35:44.744Z,96.80
2018-01-07T01:38:12.151Z,97.00
2018-01-07T01:40:40.357Z,96.70
2018-01-07T01:43:07.775Z,96.90
2018-01-07T01:45:35.195Z,96.90
2018-01-07T01:48:03.380Z,96.80
2018-01-07T01:50:30.814Z,96.80
2018-01-07T01:52:58.997Z,96.70
2018-01-07T01:55:26.416Z,96.60
2018-01-07T01:57:53.836Z,96.70
2018-01-07T02:00:21.255Z,96.90
2018-01-07T02:02:48.679Z,96.80
2018-01-07T02:05:16.110Z,96.90
2018-01-07T02:07:43.595Z,96.80
2018-01-07T02:10:10.947Z,96.90
2018-01-07T02:12:39.166Z,98.70
2018-01-07T02:15:06.589Z,98.70
2018-01-07T02:17:34.032Z,98.70
2018-01-07T02:20:01.464Z,97.10
2018-01-07T02:22:28.887Z,96.90
2018-01-07T02:24:56.311Z,96.80
2018-01-07T02:27:24.516Z,97.10
2018-01-07T02:29:51.946Z,97.00
2018-01-07T02:32:19.370Z,97.00
2018-01-07T02:34:47.556Z,97.00
2018-01-07T02:37:14.981Z,97.00
2018-01-07T02:39:42.400Z,97.10
2018-01-07T02:42:10.608Z,98.90
2018-01-07T02:44:38.028Z,99.00
2018-01-07T02:47:05.452Z,99.90
2018-01-07T02:49:33.672Z,99.90
2018-01-07T02:52:01.093Z,99.90
2018-01-07T02:54:28.511Z,98.80
2018-01-07T02:56:55.948Z,98.20
2018-01-07T02:59:23.377Z,97.10
2018-01-07T03:01:51.563Z,97.30
2018-01-07T03:04:19.003Z,97.30
2018-01-07T03:06:46.447Z,98.70
2018-01-07T03:09:13.891Z,99.50
2018-01-07T03:11:41.330Z,99.40
2018-01-07T03:14:08.756Z,99.30
2018-01-07T03:16:36.176Z,99.60
2018-01-07T03:19:04.376Z,99.60
2018-01-07T03:21:31.804Z,99.50
2018-01-07T03:23:59.244Z,97.50
2018-01-07T03:26:26.667Z,97.30
2018-01-07T03:28:54.876Z,97.40
2018-01-07T03:31:22.300Z,97.40
2018-01-07T03:33:49.742Z,98.70
2018-01-07T03:36:17.164Z,99.50
2018-01-07T03:38:44.588Z,99.90
2018-01-07T03:41:12.808Z,99.90
2018-01-07T03:43:40.232Z,99.90
2018-01-07T03:46:07.657Z,99.90
2018-01-07T03:48:35.088Z,99.90
2018-01-07T03:51:02.507Z,99.90
2018-01-07T03:53:30.707Z,99.90
2018-01-07T03:55:58.136Z,99.90
2018-01-07T03:58:25.569Z,99.90
2018-01-07T04:00:52.984Z,99.90
2018-01-07T04:03:21.193Z,99.90
2018-01-07T04:05:48.628Z,99.90
2018-01-07T04:08:16.075Z,99.90
2018-01-07T04:10:43.495Z,99.90
2018-01-07T04:13:10.923Z,99.90
2018-01-07T04:15:38.352Z,99.90
2018-01-07T04:18:06.548Z,99.90
2018-01-07T04:20:33.980Z,99.90
2018-01-07T04:23:01.400Z,99.90
2018-01-07T04:25:29.591Z,99.90
2018-01-07T04:27:57.021Z,99.90
2018-01-07T04:30:24.496Z,99.90
2018-01-07T04:32:51.928Z,99.90
2018-01-07T04:35:19.359Z,99.90
2018-01-07T04:37:46.788Z,99.90
2018-01-07T04:40:14.208Z,99.90
2018-01-07T04:42:42.405Z,99.90
2018-01-07T04:45:09.828Z,99.90
2018-01-07T04:47:37.247Z,99.90
2018-01-07T04:50:05.444Z,99.90
2018-01-07T04:52:32.870Z,99.90
2018-01-07T04:55:00.301Z,99.90
2018-01-07T04:57:28.483Z,99.90
2018-01-07T04:59:55.906Z,99.90
2018-01-07T05:02:23.328Z,99.90
2018-01-07T05:04:51.515Z,99.90
2018-01-07T05:07:18.935Z,99.90
2018-01-07T05:09:47.135Z,99.90
2018-01-07T05:12:14.563Z,99.90
2018-01-07T05:14:41.992Z,99.40
2018-01-07T05:17:09.427Z,98.10
2018-01-07T05:19:37.627Z,99.90
2018-01-07T05:22:05.055Z,99.90
2018-01-07T05:24:32.481Z,99.90
2018-01-07T05:26:59.903Z,99.90
2018-01-07T05:29:28.112Z,99.90
2018-01-07T05:31:55.540Z,99.90
2018-01-07T05:34:22.955Z,99.90
2018-01-07T05:36:50.390Z,99.90
2018-01-07T05:39:18.576Z,99.90
2018-01-07T05:41:46.040Z,99.90
2018-01-07T05:44:13.464Z,99.90
2018-01-07T05:46:40.891Z,99.90
2018-01-07T05:49:08.314Z,99.90
2018-01-07T05:51:35.754Z,99.90
2018-01-07T05:54:03.944Z,99.90
2018-01-07T05:56:31.376Z,99.90
2018-01-07T05:58:58.803Z,99.90
2018-01-07T06:01:26.228Z,99.90
2018-01-07T06:03:54.420Z,99.90
2018-01-07T06:06:21.848Z,99.90
2018-01-07T06:08:49.268Z,99.90
2018-01-07T06:11:17.460Z,98.50
2018-01-07T06:13:44.888Z,98.50
2018-01-07T06:16:12.307Z,98.10
2018-01-07T06:18:40.495Z,97.60
2018-01-07T06:21:07.920Z,97.60
2018-01-07T06:23:36.112Z,99.90
2018-01-07T06:26:03.535Z,99.90
2018-01-07T06:28:30.968Z,99.90
2018-01-07T06:30:58.395Z,99.90
2018-01-07T06:33:26.589Z,99.90
2018-01-07T06:35:54.012Z,99.90
2018-01-07T06:38:21.436Z,99.90
2018-01-07T06:40:49.627Z,99.90
2018-01-07T06:43:17.057Z,99.90
2018-01-07T06:45:44.475Z,99.90
2018-01-07T06:48:12.663Z,99.90
2018-01-07T06:50:40.099Z,99.90
2018-01-07T06:53:07.524Z,99.90
2018-01-07T06:55:35.712Z,99.90
2018-01-07T06:58:03.136Z,99.90
2018-01-07T07:00:30.608Z,99.90
2018-01-07T07:02:58.014Z,99.90
2018-01-07T07:05:26.206Z,99.90
2018-01-07T07:07:53.663Z,99.90
2018-01-07T07:10:21.080Z,99.90
2018-01-07T07:12:48.504Z,98.50
2018-01-07T07:15:15.924Z,97.50
2018-01-07T07:17:44.111Z,98.20
2018-01-07T07:20:11.538Z,98.20
2018-01-07T07:22:39.724Z,98.20
2018-01-07T07:25:07.148Z,98.20
2018-01-07T07:27:34.571Z,98.00
2018-01-07T07:30:02.764Z,97.60
2018-01-07T07:32:30.187Z,97.60
2018-01-07T07:34:57.636Z,97.80
2018-01-07T07:37:25.065Z,97.90
2018-01-07T07:39:53.254Z,97.40
2018-01-07T07:42:20.676Z,97.40
2018-01-07T07:44:48.099Z,96.70
2018-01-07T07:47:16.290Z,96.70
2018-01-07T07:49:43.712Z,96.60
2018-01-07T07:52:11.143Z,96.80
2018-01-07T07:54:39.328Z,96.50
2018-01-07T07:57:06.766Z,96.40
2018-01-07T07:59:34.196Z,96.70
2018-01-07T08:02:01.627Z,96.80
2018-01-07T08:04:29.859Z,97.70
2018-01-07T08:06:57.235Z,97.70
2018-01-07T08:09:24.664Z,99.20
2018-01-07T08:11:52.851Z,99.50
2018-01-07T08:14:20.272Z,99.50
2018-01-07T08:16:48.466Z,97.90
2018-01-07T08:19:15.890Z,97.90
2018-01-07T08:21:43.311Z,98.10
2018-01-07T08:24:11.500Z,97.70
2018-01-07T08:26:39.060Z,97.70
2018-01-07T08:29:06.484Z,97.90
2018-01-07T08:31:33.922Z,97.90
2018-01-07T08:34:01.339Z,98.10
2018-01-07T08:36:29.532Z,98.10
2018-01-07T08:38:56.960Z,98.10
2018-01-07T08:41:24.383Z,98.10
2018-01-07T08:43:52.568Z,98.00
2018-01-07T08:46:20.004Z,98.00
2018-01-07T08:48:47.427Z,97.80
2018-01-07T08:51:14.933Z,97.90
2018-01-07T08:53:42.362Z,97.80
2018-01-07T08:56:09.784Z,97.80
2018-01-07T08:58:37.208Z,97.90
2018-01-07T09:01:04.644Z,97.90
2018-01-07T09:03:32.056Z,98.00
2018-01-07T09:06:00.288Z,97.80
2018-01-07T09:08:27.718Z,97.80
2018-01-07T09:10:55.135Z,98.10
2018-01-07T09:13:22.555Z,97.90
2018-01-07T09:15:50.748Z,97.90
2018-01-07T09:18:18.175Z,97.90
2018-01-07T09:20:45.596Z,97.90
2018-01-07T09:23:13.788Z,98.10
2018-01-07T09:25:41.275Z,98.10
2018-01-07T09:28:08.708Z,97.90
2018-01-07T09:30:36.899Z,97.70
2018-01-07T09:33:04.333Z,97.60
2018-01-07T09:35:32.523Z,97.60
2018-01-07T09:37:59.962Z,97.60
2018-01-07T09:40:27.380Z,97.40
2018-01-07T09:42:55.568Z,97.40
2018-01-07T09:45:22.987Z,97.70
2018-01-07T09:47:50.408Z,97.10
2018-01-07T09:50:17.831Z,97.00
2018-01-07T09:52:45.252Z,97.10
2018-01-07T09:55:12.683Z,96.90
2018-01-07T09:57:40.114Z,96.90
2018-01-07T10:00:07.536Z,97.00
2018-01-07T10:02:34.962Z,96.90
2018-01-07T10:05:03.156Z,96.50
2018-01-07T10:07:30.580Z,96.50
2018-01-07T10:09:58.284Z,96.60
2018-01-07T10:12:25.699Z,96.50
2018-01-07T10:14:53.120Z,96.60
2018-01-07T10:17:20.547Z,96.30
2018-01-07T10:19:48.735Z,95.60
2018-01-07T10:22:16.155Z,95.60
2018-01-07T10:24:43.580Z,95.50
2018-01-07T10:27:11.770Z,95.50
2018-01-07T10:29:39.240Z,95.40
2018-01-07T10:32:06.673Z,95.20
2018-01-07T10:34:34.096Z,95.30
2018-01-07T10:37:01.519Z,95.00
2018-01-07T10:39:28.940Z,95.00
2018-01-07T10:41:57.136Z,94.70
2018-01-07T10:44:24.562Z,94.60
2018-01-07T10:46:51.983Z,94.70
2018-01-07T10:49:20.168Z,94.30
2018-01-07T10:51:47.588Z,94.30
2018-01-07T10:54:15.775Z,94.20
2018-01-07T10:56:43.195Z,94.10
2018-01-07T10:59:11.388Z,93.90
2018-01-07T11:01:44.559Z,93.90
2018-01-07T11:04:12.020Z,94.00
2018-01-07T11:06:39.440Z,94.00
2018-01-07T11:09:06.868Z,94.00
2018-01-07T11:11:34.644Z,93.90
2018-01-07T11:14:02.060Z,94.10
2018-01-07T11:16:29.527Z,93.90
2018-01-07T11:18:56.947Z,93.90
2018-01-07T11:21:24.388Z,93.90
2018-01-07T11:23:51.803Z,94.10
2018-01-07T11:26:20.016Z,93.60
2018-01-07T11:28:47.436Z,93.60
2018-01-07T11:31:14.868Z,93.60
2018-01-07T11:33:42.315Z,93.80
2018-01-07T11:36:09.732Z,93.80
2018-01-07T11:38:37.944Z,93.90
2018-01-07T11:41:05.367Z,93.90
2018-01-07T11:43:32.792Z,94.00
2018-01-07T11:46:00.228Z,94.20
2018-01-07T11:48:27.648Z,93.90
2018-01-07T11:50:55.841Z,93.70
2018-01-07T11:53:23.452Z,93.70
2018-01-07T11:55:50.745Z,93.70
2018-01-07T11:58:18.165Z,93.70
2018-01-07T12:00:45.583Z,93.70
2018-01-07T12:03:13.775Z,93.90
2018-01-07T12:05:41.206Z,93.90
2018-01-07T12:08:08.630Z,93.80
2018-01-07T12:10:36.811Z,93.80
2018-01-07T12:13:04.284Z,93.80
2018-01-07T12:15:31.731Z,94.00
2018-01-07T12:17:59.150Z,93.70
2018-01-07T12:20:26.575Z,93.70
2018-01-07T12:22:54.046Z,93.50
2018-01-07T12:25:21.465Z,93.50
2018-01-07T12:27:48.880Z,93.40
2018-01-07T12:30:16.350Z,93.30
2018-01-07T12:32:43.808Z,93.30
2018-01-07T12:35:11.212Z,93.40
2018-01-07T12:37:38.632Z,93.40
2018-01-07T12:40:06.819Z,93.30
2018-01-07T12:42:34.248Z,93.30
2018-01-07T12:45:02.432Z,93.50
2018-01-07T12:47:29.866Z,93.50
2018-01-07T12:49:57.296Z,93.20
2018-01-07T12:52:24.716Z,93.30
2018-01-07T12:54:52.895Z,93.40
2018-01-07T12:57:20.330Z,93.20
2018-01-07T12:59:48.516Z,93.10
2018-01-07T13:02:15.940Z,93.10
2018-01-07T13:04:43.355Z,93.20
2018-01-07T13:07:11.552Z,93.10
2018-01-07T13:09:38.986Z,93.10
2018-01-07T13:12:06.412Z,93.00
2018-01-07T13:14:34.597Z,93.00
2018-01-07T13:17:02.032Z,93.00
2018-01-07T13:19:29.463Z,93.00
2018-01-07T13:21:56.892Z,93.20
2018-01-07T13:24:25.392Z,92.90
2018-01-07T13:26:52.807Z,92.90
2018-01-07T13:29:20.291Z,92.90
2018-01-07T13:31:47.825Z,93.00
2018-01-07T13:34:15.256Z,92.90
2018-01-07T13:36:42.684Z,92.80
2018-01-07T13:39:10.116Z,92.60
2018-01-07T13:41:37.589Z,92.60
2018-01-07T13:44:05.040Z,92.50
2018-01-07T13:46:32.497Z,92.60
2018-01-07T13:48:59.912Z,93.10
2018-01-07T13:51:27.334Z,92.80
2018-01-07T13:53:54.827Z,92.00
2018-01-07T13:56:22.248Z,92.00
2018-01-07T13:58:49.663Z,92.30
2018-01-07T14:01:17.087Z,92.50
2018-01-07T14:03:45.290Z,92.10
2018-01-07T14:06:12.755Z,92.10
2018-01-07T14:08:40.172Z,92.10
2018-01-07T14:11:07.634Z,91.90
2018-01-07T14:13:35.068Z,92.00
2018-01-07T14:16:02.538Z,92.00
2018-01-07T14:18:29.960Z,92.20
2018-01-07T14:20:57.480Z,92.20
2018-01-07T14:23:24.950Z,92.20
2018-01-07T14:25:52.355Z,92.20
2018-01-07T14:28:19.833Z,92.30
2018-01-07T14:30:47.289Z,92.30
2018-01-07T14:33:14.694Z,92.20
2018-01-07T14:35:42.158Z,92.20
2018-01-07T14:38:09.605Z,92.10
2018-01-07T14:40:37.123Z,92.00
2018-01-07T14:43:04.560Z,92.20
2018-01-07T14:45:31.988Z,92.30
2018-01-07T14:47:59.442Z,92.30
2018-01-07T14:50:26.860Z,92.10
2018-01-07T14:52:54.292Z,92.10
2018-01-07T14:55:21.721Z,92.20
2018-01-07T14:57:49.954Z,92.20
2018-01-07T15:00:17.372Z,92.20
2018-01-07T15:02:44.784Z,92.20
2018-01-07T15:05:12.263Z,92.30
2018-01-07T15:07:39.679Z,92.30
2018-01-07T15:10:07.120Z,92.20
2018-01-07T15:12:34.595Z,92.20
2018-01-07T15:15:02.037Z,92.30
2018-01-07T15:17:29.458Z,92.10
2018-01-07T15:19:56.880Z,92.20
2018-01-07T15:22:24.359Z,92.50
2018-01-07T15:24:51.771Z,92.40
2018-01-07T15:27:19.232Z,92.50
2018-01-07T15:29:46.717Z,92.40
2018-01-07T15:32:14.116Z,92.40
2018-01-07T15:34:41.597Z,92.50
2018-01-07T15:37:09.768Z,92.50
2018-01-07T15:39:37.210Z,92.50
2018-01-07T15:42:05.399Z,92.60
2018-01-07T15:44:32.862Z,92.60
2018-01-07T15:47:00.327Z,92.50
2018-01-07T15:49:27.787Z,92.50
2018-01-07T15:51:55.199Z,92.60
2018-01-07T15:54:22.661Z,92.50
2018-01-07T15:56:50.944Z,92.20
2018-01-07T15:59:18.327Z,92.20
2018-01-07T16:01:45.748Z,92.20
2018-01-07T16:04:13.254Z,92.30
2018-01-07T16:06:40.678Z,92.20
2018-01-07T16:09:08.096Z,92.10
2018-01-07T16:11:35.532Z,91.90
2018-01-07T16:14:03.000Z,92.00
2018-01-07T16:16:30.464Z,92.20
2018-01-07T16:18:57.918Z,92.40
2018-01-07T16:21:26.100Z,92.60
2018-01-07T16:23:53.614Z,92.50
2018-01-07T16:26:21.065Z,92.70
2018-01-07T16:28:49.303Z,92.50
2018-01-07T16:31:18.258Z,92.50
2018-01-07T16:33:45.719Z,92.50
2018-01-07T16:36:13.170Z,92.80
2018-01-07T16:38:40.584Z,92.30
2018-01-07T16:41:08.020Z,92.10
2018-01-07T16:43:35.517Z,91.70
2018-01-07T16:46:02.953Z,91.50
2018-01-07T16:48:31.195Z,91.60
2018-01-07T16:50:58.640Z,91.60
2018-01-07T16:53:26.862Z,90.50
2018-01-07T16:55:54.288Z,90.50
2018-01-07T16:58:21.799Z,90.70
2018-01-07T17:00:49.977Z,90.80
2018-01-07T17:03:17.452Z,90.80
2018-01-07T17:05:44.902Z,90.60
2018-01-07T17:08:12.368Z,90.70
2018-01-07T17:10:39.829Z,90.60
2018-01-07T17:13:08.050Z,90.40
2018-01-07T17:15:35.520Z,90.40
2018-01-07T17:18:03.684Z,90.30
2018-01-07T17:20:31.116Z,90.30
2018-01-07T17:22:59.378Z,90.30
2018-01-07T17:25:26.839Z,90.30
2018-01-07T17:27:55.066Z,90.20
2018-01-07T17:30:22.525Z,90.20
2018-01-07T17:32:49.971Z,90.30
2018-01-07T17:35:18.203Z,90.30
2018-01-07T17:37:45.660Z,90.30
2018-01-07T17:40:13.110Z,90.20
2018-01-07T17:42:41.329Z,90.40
2018-01-07T17:45:08.787Z,90.30
2018-01-07T17:47:36.250Z,90.60
2018-01-07T17:50:03.716Z,90.20
2018-01-07T17:52:31.969Z,90.10
2018-01-07T17:55:00.199Z,90.00
2018-01-07T17:57:27.672Z,90.00
2018-01-07T17:59:55.891Z,90.10
2018-01-07T18:02:23.339Z,90.00
2018-01-07T18:04:50.802Z,90.00
2018-01-07T18:07:19.018Z,90.00
2018-01-07T18:09:46.477Z,90.00
2018-01-07T18:12:13.935Z,90.20
2018-01-07T18:14:41.483Z,90.00
2018-01-07T18:17:08.931Z,89.80
2018-01-07T18:19:37.167Z,90.20
2018-01-07T18:22:04.614Z,90.20
2018-01-07T18:24:32.066Z,90.30
2018-01-07T18:26:59.555Z,90.40
2018-01-07T18:29:27.011Z,90.00
2018-01-07T18:31:54.471Z,90.20
2018-01-07T18:34:21.967Z,89.70
2018-01-07T18:36:50.194Z,89.80
2018-01-07T18:39:17.659Z,89.80
2018-01-07T18:41:45.878Z,90.70
2018-01-07T18:44:13.350Z,90.70
2018-01-07T18:46:40.807Z,88.00
2018-01-07T18:49:09.050Z,88.20
2018-01-07T18:51:37.278Z,89.40
2018-01-07T18:54:04.735Z,89.40
2018-01-07T18:56:32.190Z,89.10
2018-01-07T18:58:59.747Z,89.10
2018-01-07T19:01:27.983Z,89.00
2018-01-07T19:03:55.454Z,89.00
2018-01-07T19:06:23.691Z,89.50
2018-01-07T19:08:51.155Z,89.50
2018-01-07T19:11:19.702Z,88.50
2018-01-07T19:13:47.254Z,88.40
2018-01-07T19:16:14.751Z,88.30
2018-01-07T19:18:42.204Z,88.30
2018-01-07T19:21:09.673Z,88.30
2018-01-07T19:23:37.131Z,88.40
2018-01-07T19:26:05.375Z,88.60
2018-01-07T19:28:32.831Z,88.50
2018-01-07T19:31:01.142Z,88.90
2018-01-07T19:33:28.601Z,88.80
2018-01-07T19:35:56.061Z,88.80
2018-01-07T19:38:23.535Z,88.90
2018-01-07T19:40:51.759Z,88.80
2018-01-07T19:43:19.979Z,88.70
2018-01-07T19:45:47.447Z,88.80
2018-01-07T19:48:14.912Z,88.70
2018-01-07T19:50:42.378Z,89.20
2018-01-07T19:53:10.598Z,89.00
2018-01-07T19:55:38.053Z,88.80
2018-01-07T19:58:06.283Z,89.00
2018-01-07T20:00:33.751Z,88.90
2018-01-07T20:03:01.202Z,88.80
2018-01-07T20:05:28.763Z,89.40
2018-01-07T20:07:56.223Z,89.70
2018-01-07T20:10:23.847Z,89.30
2018-01-07T20:12:52.066Z,88.90
2018-01-07T20:15:19.551Z,88.80
2018-01-07T20:17:47.827Z,88.80
2018-01-07T20:20:15.259Z,88.80
2018-01-07T20:22:43.482Z,89.30
2018-01-07T20:25:10.938Z,89.30
2018-01-07T20:27:38.570Z,88.60
2018-01-07T20:30:06.026Z,88.80
2018-01-07T20:32:33.503Z,89.20
2018-01-07T20:35:00.963Z,90.40
2018-01-07T20:37:28.434Z,89.70
2018-01-07T20:39:55.895Z,88.40
2018-01-07T20:42:23.355Z,88.70
2018-01-07T20:44:51.583Z,88.80
2018-01-07T20:47:19.049Z,88.70
2018-01-07T20:49:46.516Z,88.30
2018-01-07T20:52:13.978Z,89.60
2018-01-07T20:54:41.482Z,88.70
2018-01-07T20:57:09.712Z,88.30
2018-01-07T20:59:37.167Z,88.30
2018-01-07T21:02:05.446Z,88.90
2018-01-07T21:04:33.666Z,89.00
2018-01-07T21:07:01.125Z,88.90
2018-01-07T21:09:28.579Z,89.00
2018-01-07T21:11:56.039Z,89.10
2018-01-07T21:14:24.260Z,88.70
2018-01-07T21:16:51.713Z,88.70
2018-01-07T21:19:19.940Z,88.90
2018-01-07T21:21:47.395Z,88.80
2018-01-07T21:24:14.853Z,89.10
2018-01-07T21:26:43.079Z,89.00
2018-01-07T21:29:10.570Z,89.10
2018-01-07T21:31:38.043Z,89.20
2018-01-07T21:34:05.527Z,88.80
2018-01-07T21:36:32.992Z,88.50
2018-01-07T21:39:00.450Z,88.90
2018-01-07T21:41:28.674Z,88.60
2018-01-07T21:43:56.147Z,88.60
2018-01-07T21:46:24.361Z,89.20
2018-01-07T21:48:51.867Z,89.10
2018-01-07T21:51:20.106Z,89.00
2018-01-07T21:53:47.576Z,88.90
2018-01-07T21:56:18.883Z,89.00
2018-01-07T21:58:46.371Z,88.90
2018-01-07T22:01:25.819Z,89.20
2018-01-07T22:04:02.075Z,89.20
2018-01-07T22:06:41.343Z,89.40
2018-01-07T22:09:08.827Z,89.40
2018-01-07T22:11:36.287Z,89.20
2018-01-07T22:14:03.754Z,89.80
2018-01-07T22:16:31.979Z,90.10
2018-01-07T22:18:59.445Z,90.10
2018-01-07T22:21:27.702Z,90.10
2018-01-07T22:23:55.167Z,90.00
2018-01-07T22:26:22.632Z,90.40
2018-01-07T22:28:50.185Z,90.20
2018-01-07T22:31:17.629Z,90.30
2018-01-07T22:33:45.085Z,90.50
2018-01-07T22:36:12.554Z,90.60
2018-01-07T22:38:39.993Z,90.50
2018-01-07T22:41:07.453Z,90.70
2018-01-07T22:43:35.678Z,90.70
2018-01-07T22:46:03.154Z,90.70
2018-01-07T22:48:31.366Z,90.70
2018-01-07T22:50:58.827Z,90.70
2018-01-07T22:53:26.291Z,90.70
2018-01-07T22:55:54.518Z,90.60
2018-01-07T22:58:21.986Z,90.50
2018-01-07T23:00:50.220Z,90.20
2018-01-07T23:03:17.688Z,90.40
2018-01-07T23:05:45.151Z,90.60
2018-01-07T23:08:13.374Z,90.60
2018-01-07T23:10:40.951Z,90.60
2018-01-07T23:13:09.169Z,90.50
2018-01-07T23:15:36.642Z,90.50
2018-01-07T23:18:04.145Z,90.50
2018-01-07T23:20:32.313Z,90.30
2018-01-07T23:22:59.791Z,90.30
2018-01-07T23:25:27.230Z,90.40
2018-01-07T23:27:55.458Z,90.50
2018-01-07T23:30:22.909Z,90.40
2018-01-07T23:32:50.331Z,90.40
2018-01-07T23:35:17.759Z,90.50
2018-01-07T23:37:45.213Z,90.40
2018-01-07T23:40:12.624Z,90.50
2018-01-07T23:42:40.090Z,90.40
2018-01-07T23:45:07.537Z,90.40
2018-01-07T23:47:34.947Z,90.50
2018-01-07T23:50:02.427Z,90.50
2018-01-07T23:52:29.881Z,90.50
2018-01-07T23:54:57.344Z,90.40
2018-01-07T23:57:25.557Z,90.50
2018-01-07T23:59:52.984Z,90.50
